sensor_id;sensor_type;location;lat;lon;timestamp;temperature;humidity
20831;DHT22;10576;53.556;9.868;2022-09-09T00:01:57;14.90;99.90
20831;DHT22;10576;53.556;9.868;2022-09-09T00:09:47;14.90;99.90
20831;DHT22;10576;53.556;9.868;2022-09-09T00:13:13;14.90;99.90
20831;DHT22;10576;53.556;9.868;2022-09-09T00:18:25;14.90;99.90
20831;DHT22;10576;53.556;9.868;2022-09-09T00:21:13;14.90;99.90
20831;DHT22;10576;53.556;9.868;2022-09-09T00:23:51;14.90;99.90
20831;DHT22;10576;53.556;9.868;2022-09-09T00:31:30;14.90;99.90
20831;DHT22;10576;53.556;9.868;2022-09-09T00:34:11;14.90;99.90
20831;DHT22;10576;53.556;9.868;2022-09-09T00:36:38;14.90;99.90
20831;DHT22;10576;53.556;9.868;2022-09-09T00:39:05;14.90;99.90
20831;DHT22;10576;53.556;9.868;2022-09-09T00:44:33;14.90;99.90
20831;DHT22;10576;53.556;9.868;2022-09-09T00:52:39;14.90;99.90
20831;DHT22;10576;53.556;9.868;2022-09-09T00:57:55;14.90;99.90
20831;DHT22;10576;53.556;9.868;2022-09-09T01:05:23;14.80;99.90
20831;DHT22;10576;53.556;9.868;2022-09-09T01:07:52;14.80;99.90
20831;DHT22;10576;53.556;9.868;2022-09-09T01:13:19;14.60;99.90
20831;DHT22;10576;53.556;9.868;2022-09-09T01:15:47;14.60;99.90
20831;DHT22;10576;53.556;9.868;2022-09-09T01:18:17;14.50;99.90
20831;DHT22;10576;53.556;9.868;2022-09-09T01:26:32;14.40;99.90
20831;DHT22;10576;53.556;9.868;2022-09-09T01:28:59;14.30;99.90
20831;DHT22;10576;53.556;9.868;2022-09-09T01:31:59;14.30;99.90
20831;DHT22;10576;53.556;9.868;2022-09-09T01:34:28;14.30;99.90
20831;DHT22;10576;53.556;9.868;2022-09-09T01:37:03;14.20;99.90
20831;DHT22;10576;53.556;9.868;2022-09-09T01:39:31;14.20;99.90
20831;DHT22;10576;53.556;9.868;2022-09-09T01:41:57;14.20;99.90
20831;DHT22;10576;53.556;9.868;2022-09-09T01:44:25;14.10;99.90
20831;DHT22;10576;53.556;9.868;2022-09-09T01:46:51;14.10;99.90
20831;DHT22;10576;53.556;9.868;2022-09-09T01:49:17;14.10;99.90
20831;DHT22;10576;53.556;9.868;2022-09-09T01:51:43;14.10;99.90
20831;DHT22;10576;53.556;9.868;2022-09-09T01:54:11;14.10;99.90
20831;DHT22;10576;53.556;9.868;2022-09-09T02:04:45;14.00;99.90
20831;DHT22;10576;53.556;9.868;2022-09-09T02:07:38;13.90;99.90
20831;DHT22;10576;53.556;9.868;2022-09-09T02:10:21;13.90;99.90
20831;DHT22;10576;53.556;9.868;2022-09-09T02:12:57;13.90;99.90
20831;DHT22;10576;53.556;9.868;2022-09-09T02:15:34;13.90;99.90
20831;DHT22;10576;53.556;9.868;2022-09-09T02:18:06;13.80;99.90
20831;DHT22;10576;53.556;9.868;2022-09-09T02:20:34;13.80;99.90
20831;DHT22;10576;53.556;9.868;2022-09-09T02:23:02;13.80;99.90
20831;DHT22;10576;53.556;9.868;2022-09-09T02:25:29;13.70;99.90
20831;DHT22;10576;53.556;9.868;2022-09-09T02:27:55;13.70;99.90
20831;DHT22;10576;53.556;9.868;2022-09-09T02:30:23;13.60;99.90
20831;DHT22;10576;53.556;9.868;2022-09-09T02:32:51;13.60;99.90
20831;DHT22;10576;53.556;9.868;2022-09-09T02:35:21;13.60;99.90
20831;DHT22;10576;53.556;9.868;2022-09-09T02:37:51;13.60;99.90
20831;DHT22;10576;53.556;9.868;2022-09-09T02:40:17;13.60;99.90
20831;DHT22;10576;53.556;9.868;2022-09-09T02:42:44;13.60;99.90
20831;DHT22;10576;53.556;9.868;2022-09-09T02:45:13;13.60;99.90
20831;DHT22;10576;53.556;9.868;2022-09-09T02:48:03;13.50;99.90
20831;DHT22;10576;53.556;9.868;2022-09-09T02:50:45;13.50;99.90
20831;DHT22;10576;53.556;9.868;2022-09-09T02:56:04;13.50;99.90
20831;DHT22;10576;53.556;9.868;2022-09-09T02:58:30;13.50;99.90
20831;DHT22;10576;53.556;9.868;2022-09-09T03:00:56;13.50;99.90
20831;DHT22;10576;53.556;9.868;2022-09-09T03:03:23;13.50;99.90
20831;DHT22;10576;53.556;9.868;2022-09-09T03:05:49;13.40;99.90
20831;DHT22;10576;53.556;9.868;2022-09-09T03:08:16;13.50;99.90
20831;DHT22;10576;53.556;9.868;2022-09-09T03:10:41;13.40;99.90
20831;DHT22;10576;53.556;9.868;2022-09-09T03:13:07;13.40;99.90
20831;DHT22;10576;53.556;9.868;2022-09-09T03:15:33;13.40;99.90
20831;DHT22;10576;53.556;9.868;2022-09-09T03:17:59;13.40;99.90
20831;DHT22;10576;53.556;9.868;2022-09-09T03:20:27;13.40;99.90
20831;DHT22;10576;53.556;9.868;2022-09-09T03:22:54;13.30;99.90
20831;DHT22;10576;53.556;9.868;2022-09-09T03:25:20;13.30;99.90
20831;DHT22;10576;53.556;9.868;2022-09-09T03:27:46;13.30;99.90
20831;DHT22;10576;53.556;9.868;2022-09-09T03:30:12;13.30;99.90
20831;DHT22;10576;53.556;9.868;2022-09-09T03:32:37;13.30;99.90
20831;DHT22;10576;53.556;9.868;2022-09-09T03:35:03;13.30;99.90
20831;DHT22;10576;53.556;9.868;2022-09-09T03:37:29;13.30;99.90
20831;DHT22;10576;53.556;9.868;2022-09-09T03:39:55;13.30;99.90
20831;DHT22;10576;53.556;9.868;2022-09-09T03:42:21;13.30;99.90
20831;DHT22;10576;53.556;9.868;2022-09-09T03:44:47;13.20;99.90
20831;DHT22;10576;53.556;9.868;2022-09-09T03:47:20;13.20;99.90
20831;DHT22;10576;53.556;9.868;2022-09-09T03:49:47;13.20;99.90
20831;DHT22;10576;53.556;9.868;2022-09-09T03:52:14;13.20;99.90
20831;DHT22;10576;53.556;9.868;2022-09-09T03:54:39;13.20;99.90
20831;DHT22;10576;53.556;9.868;2022-09-09T03:57:06;13.20;99.90
20831;DHT22;10576;53.556;9.868;2022-09-09T03:59:32;13.20;99.90
20831;DHT22;10576;53.556;9.868;2022-09-09T04:01:58;13.20;99.90
20831;DHT22;10576;53.556;9.868;2022-09-09T04:04:24;13.20;99.90
20831;DHT22;10576;53.556;9.868;2022-09-09T04:06:52;13.20;99.90
20831;DHT22;10576;53.556;9.868;2022-09-09T04:09:18;13.20;99.90
20831;DHT22;10576;53.556;9.868;2022-09-09T04:11:43;13.20;99.90
20831;DHT22;10576;53.556;9.868;2022-09-09T04:14:09;13.20;99.90
20831;DHT22;10576;53.556;9.868;2022-09-09T04:16:35;13.20;99.90
20831;DHT22;10576;53.556;9.868;2022-09-09T04:19:03;13.20;99.90
20831;DHT22;10576;53.556;9.868;2022-09-09T04:21:30;13.20;99.90
20831;DHT22;10576;53.556;9.868;2022-09-09T04:23:56;13.20;99.90
20831;DHT22;10576;53.556;9.868;2022-09-09T04:26:22;13.10;99.90
20831;DHT22;10576;53.556;9.868;2022-09-09T04:28:48;13.10;99.90
20831;DHT22;10576;53.556;9.868;2022-09-09T04:31:21;13.10;99.90
20831;DHT22;10576;53.556;9.868;2022-09-09T04:33:49;13.10;99.90
20831;DHT22;10576;53.556;9.868;2022-09-09T04:36:15;13.10;99.90
20831;DHT22;10576;53.556;9.868;2022-09-09T04:38:41;13.10;99.90
20831;DHT22;10576;53.556;9.868;2022-09-09T04:41:07;13.20;99.90
20831;DHT22;10576;53.556;9.868;2022-09-09T04:43:33;13.20;99.90
20831;DHT22;10576;53.556;9.868;2022-09-09T04:45:59;13.20;99.90
20831;DHT22;10576;53.556;9.868;2022-09-09T04:48:25;13.30;99.90
20831;DHT22;10576;53.556;9.868;2022-09-09T04:50:58;13.30;99.90
20831;DHT22;10576;53.556;9.868;2022-09-09T04:53:25;13.30;99.90
20831;DHT22;10576;53.556;9.868;2022-09-09T04:55:53;13.40;99.90
20831;DHT22;10576;53.556;9.868;2022-09-09T04:58:18;13.40;99.90
20831;DHT22;10576;53.556;9.868;2022-09-09T05:00:47;13.50;99.90
20831;DHT22;10576;53.556;9.868;2022-09-09T05:03:12;13.50;99.90
20831;DHT22;10576;53.556;9.868;2022-09-09T05:05:38;13.50;99.90
20831;DHT22;10576;53.556;9.868;2022-09-09T05:08:05;13.50;99.90
20831;DHT22;10576;53.556;9.868;2022-09-09T05:10:32;13.40;99.90
20831;DHT22;10576;53.556;9.868;2022-09-09T05:12:58;13.40;99.90
20831;DHT22;10576;53.556;9.868;2022-09-09T05:15:24;13.40;99.90
20831;DHT22;10576;53.556;9.868;2022-09-09T05:17:50;13.30;99.90
20831;DHT22;10576;53.556;9.868;2022-09-09T05:20:17;13.30;99.90
20831;DHT22;10576;53.556;9.868;2022-09-09T05:22:43;13.40;99.90
20831;DHT22;10576;53.556;9.868;2022-09-09T05:25:09;13.40;99.90
20831;DHT22;10576;53.556;9.868;2022-09-09T05:27:35;13.40;99.90
20831;DHT22;10576;53.556;9.868;2022-09-09T05:30:01;13.30;99.90
20831;DHT22;10576;53.556;9.868;2022-09-09T05:32:26;13.40;99.90
20831;DHT22;10576;53.556;9.868;2022-09-09T05:34:53;13.40;99.90
20831;DHT22;10576;53.556;9.868;2022-09-09T05:37:19;13.50;99.90
20831;DHT22;10576;53.556;9.868;2022-09-09T05:39:44;13.50;99.90
20831;DHT22;10576;53.556;9.868;2022-09-09T05:42:10;13.50;99.90
20831;DHT22;10576;53.556;9.868;2022-09-09T05:44:36;13.50;99.90
20831;DHT22;10576;53.556;9.868;2022-09-09T05:47:02;13.60;99.90
20831;DHT22;10576;53.556;9.868;2022-09-09T05:49:28;13.70;99.90
20831;DHT22;10576;53.556;9.868;2022-09-09T05:51:54;13.70;99.90
20831;DHT22;10576;53.556;9.868;2022-09-09T05:54:19;13.80;99.90
20831;DHT22;10576;53.556;9.868;2022-09-09T05:56:45;13.90;99.90
20831;DHT22;10576;53.556;9.868;2022-09-09T05:59:11;14.00;99.90
20831;DHT22;10576;53.556;9.868;2022-09-09T06:01:38;14.10;99.90
20831;DHT22;10576;53.556;9.868;2022-09-09T06:04:06;14.20;99.90
20831;DHT22;10576;53.556;9.868;2022-09-09T06:06:33;14.30;99.90
20831;DHT22;10576;53.556;9.868;2022-09-09T06:09:04;14.40;99.90
20831;DHT22;10576;53.556;9.868;2022-09-09T06:11:35;14.40;99.90
20831;DHT22;10576;53.556;9.868;2022-09-09T06:14:01;14.40;99.90
20831;DHT22;10576;53.556;9.868;2022-09-09T06:16:28;14.40;99.90
20831;DHT22;10576;53.556;9.868;2022-09-09T06:18:55;14.40;99.90
20831;DHT22;10576;53.556;9.868;2022-09-09T06:21:29;14.50;99.90
20831;DHT22;10576;53.556;9.868;2022-09-09T06:23:56;14.50;99.90
20831;DHT22;10576;53.556;9.868;2022-09-09T06:26:27;14.50;99.90
20831;DHT22;10576;53.556;9.868;2022-09-09T06:28:54;14.50;99.90
20831;DHT22;10576;53.556;9.868;2022-09-09T06:31:22;14.50;99.90
20831;DHT22;10576;53.556;9.868;2022-09-09T06:33:50;14.50;99.90
20831;DHT22;10576;53.556;9.868;2022-09-09T06:36:18;14.60;99.90
20831;DHT22;10576;53.556;9.868;2022-09-09T06:38:45;14.60;99.90
20831;DHT22;10576;53.556;9.868;2022-09-09T06:41:13;14.60;99.90
20831;DHT22;10576;53.556;9.868;2022-09-09T06:43:39;14.70;99.90
20831;DHT22;10576;53.556;9.868;2022-09-09T06:46:20;14.70;99.90
20831;DHT22;10576;53.556;9.868;2022-09-09T06:48:47;14.80;99.90
20831;DHT22;10576;53.556;9.868;2022-09-09T06:51:18;14.90;99.90
20831;DHT22;10576;53.556;9.868;2022-09-09T06:53:45;15.00;99.90
20831;DHT22;10576;53.556;9.868;2022-09-09T06:58:40;15.20;99.90
20831;DHT22;10576;53.556;9.868;2022-09-09T07:01:11;15.10;99.90
20831;DHT22;10576;53.556;9.868;2022-09-09T07:03:41;15.20;99.90
20831;DHT22;10576;53.556;9.868;2022-09-09T07:06:12;15.30;99.90
20831;DHT22;10576;53.556;9.868;2022-09-09T07:08:40;15.40;99.90
20831;DHT22;10576;53.556;9.868;2022-09-09T07:11:08;15.50;99.90
20831;DHT22;10576;53.556;9.868;2022-09-09T07:13:34;15.50;99.90
20831;DHT22;10576;53.556;9.868;2022-09-09T07:16:04;15.50;99.90
20831;DHT22;10576;53.556;9.868;2022-09-09T07:18:31;15.50;99.90
20831;DHT22;10576;53.556;9.868;2022-09-09T07:20:57;15.50;99.90
20831;DHT22;10576;53.556;9.868;2022-09-09T07:23:23;15.50;99.90
20831;DHT22;10576;53.556;9.868;2022-09-09T07:25:50;15.50;99.90
20831;DHT22;10576;53.556;9.868;2022-09-09T07:28:16;15.50;99.90
20831;DHT22;10576;53.556;9.868;2022-09-09T07:30:42;15.50;99.90
20831;DHT22;10576;53.556;9.868;2022-09-09T07:33:09;15.50;99.90
20831;DHT22;10576;53.556;9.868;2022-09-09T07:35:38;15.60;99.90
20831;DHT22;10576;53.556;9.868;2022-09-09T07:38:03;15.70;99.90
20831;DHT22;10576;53.556;9.868;2022-09-09T07:40:33;15.70;99.90
20831;DHT22;10576;53.556;9.868;2022-09-09T07:42:59;15.80;99.90
20831;DHT22;10576;53.556;9.868;2022-09-09T07:45:25;15.80;99.90
20831;DHT22;10576;53.556;9.868;2022-09-09T07:47:53;15.80;99.90
20831;DHT22;10576;53.556;9.868;2022-09-09T07:50:19;15.90;99.90
20831;DHT22;10576;53.556;9.868;2022-09-09T07:52:45;15.90;99.90
20831;DHT22;10576;53.556;9.868;2022-09-09T07:55:10;15.90;99.90
20831;DHT22;10576;53.556;9.868;2022-09-09T07:57:36;16.00;99.90
20831;DHT22;10576;53.556;9.868;2022-09-09T08:00:03;16.10;99.90
20831;DHT22;10576;53.556;9.868;2022-09-09T08:02:29;16.20;99.90
20831;DHT22;10576;53.556;9.868;2022-09-09T08:04:55;16.30;99.90
20831;DHT22;10576;53.556;9.868;2022-09-09T08:07:22;16.30;99.90
20831;DHT22;10576;53.556;9.868;2022-09-09T08:09:48;16.50;99.90
20831;DHT22;10576;53.556;9.868;2022-09-09T08:12:15;16.60;99.90
20831;DHT22;10576;53.556;9.868;2022-09-09T08:14:40;16.70;99.90
20831;DHT22;10576;53.556;9.868;2022-09-09T08:17:06;17.00;99.90
20831;DHT22;10576;53.556;9.868;2022-09-09T08:19:32;17.10;99.90
20831;DHT22;10576;53.556;9.868;2022-09-09T08:22:02;16.90;99.90
20831;DHT22;10576;53.556;9.868;2022-09-09T08:24:28;16.90;99.90
20831;DHT22;10576;53.556;9.868;2022-09-09T08:26:54;17.00;99.90
20831;DHT22;10576;53.556;9.868;2022-09-09T08:31:52;17.00;99.90
20831;DHT22;10576;53.556;9.868;2022-09-09T08:34:19;17.00;99.90
20831;DHT22;10576;53.556;9.868;2022-09-09T08:36:47;17.00;99.90
20831;DHT22;10576;53.556;9.868;2022-09-09T08:39:15;17.00;99.90
20831;DHT22;10576;53.556;9.868;2022-09-09T08:52:50;17.00;99.90
20831;DHT22;10576;53.556;9.868;2022-09-09T08:57:53;17.10;99.90
20831;DHT22;10576;53.556;9.868;2022-09-09T09:00:19;17.30;99.90
20831;DHT22;10576;53.556;9.868;2022-09-09T09:03:13;17.40;99.90
20831;DHT22;10576;53.556;9.868;2022-09-09T09:05:47;18.00;99.90
20831;DHT22;10576;53.556;9.868;2022-09-09T09:11:03;18.20;99.90
20831;DHT22;10576;53.556;9.868;2022-09-09T09:14:03;18.20;99.90
20831;DHT22;10576;53.556;9.868;2022-09-09T09:16:34;18.10;99.90
20831;DHT22;10576;53.556;9.868;2022-09-09T09:19:03;18.20;99.90
20831;DHT22;10576;53.556;9.868;2022-09-09T09:21:48;18.30;99.90
20831;DHT22;10576;53.556;9.868;2022-09-09T09:24:22;18.30;99.90
20831;DHT22;10576;53.556;9.868;2022-09-09T09:26:49;18.30;99.90
20831;DHT22;10576;53.556;9.868;2022-09-09T09:29:19;18.30;99.90
20831;DHT22;10576;53.556;9.868;2022-09-09T09:31:59;18.20;99.90
20831;DHT22;10576;53.556;9.868;2022-09-09T09:34:27;18.10;99.90
20831;DHT22;10576;53.556;9.868;2022-09-09T09:36:56;18.10;99.90
20831;DHT22;10576;53.556;9.868;2022-09-09T09:39:33;18.20;99.90
20831;DHT22;10576;53.556;9.868;2022-09-09T09:42:11;18.30;99.90
20831;DHT22;10576;53.556;9.868;2022-09-09T09:44:39;18.40;99.90
20831;DHT22;10576;53.556;9.868;2022-09-09T09:47:19;18.40;99.90
20831;DHT22;10576;53.556;9.868;2022-09-09T09:49:56;18.40;99.90
20831;DHT22;10576;53.556;9.868;2022-09-09T09:52:29;18.40;99.90
20831;DHT22;10576;53.556;9.868;2022-09-09T09:54:56;18.60;99.90
20831;DHT22;10576;53.556;9.868;2022-09-09T09:57:33;18.60;99.90
20831;DHT22;10576;53.556;9.868;2022-09-09T10:00:04;18.90;99.90
20831;DHT22;10576;53.556;9.868;2022-09-09T10:02:40;19.00;99.90
20831;DHT22;10576;53.556;9.868;2022-09-09T10:07:46;19.00;99.90
20831;DHT22;10576;53.556;9.868;2022-09-09T10:10:17;19.00;99.90
20831;DHT22;10576;53.556;9.868;2022-09-09T10:13:11;19.10;99.90
20831;DHT22;10576;53.556;9.868;2022-09-09T10:18:34;19.40;99.90
20831;DHT22;10576;53.556;9.868;2022-09-09T10:29:42;20.40;99.90
20831;DHT22;10576;53.556;9.868;2022-09-09T10:40:34;20.80;99.90
20831;DHT22;10576;53.556;9.868;2022-09-09T10:51:40;20.60;99.90
20831;DHT22;10576;53.556;9.868;2022-09-09T10:57:27;20.30;99.90
20831;DHT22;10576;53.556;9.868;2022-09-09T10:59:53;20.20;99.90
20831;DHT22;10576;53.556;9.868;2022-09-09T11:02:33;20.20;99.90
20831;DHT22;10576;53.556;9.868;2022-09-09T11:08:09;20.10;99.90
20831;DHT22;10576;53.556;9.868;2022-09-09T11:11:00;20.10;99.90
20831;DHT22;10576;53.556;9.868;2022-09-09T11:13:35;20.00;99.90
20831;DHT22;10576;53.556;9.868;2022-09-09T11:18:39;19.80;99.90
20831;DHT22;10576;53.556;9.868;2022-09-09T11:21:14;19.70;99.90
20831;DHT22;10576;53.556;9.868;2022-09-09T11:23:46;19.60;99.90
20831;DHT22;10576;53.556;9.868;2022-09-09T11:26:18;19.70;99.90
20831;DHT22;10576;53.556;9.868;2022-09-09T11:29:08;19.90;99.90
20831;DHT22;10576;53.556;9.868;2022-09-09T11:34:56;20.00;99.90
20831;DHT22;10576;53.556;9.868;2022-09-09T11:40:23;20.10;99.90
20831;DHT22;10576;53.556;9.868;2022-09-09T11:43:11;20.30;99.90
20831;DHT22;10576;53.556;9.868;2022-09-09T11:45:42;20.50;99.90
20831;DHT22;10576;53.556;9.868;2022-09-09T11:48:37;20.60;99.90
20831;DHT22;10576;53.556;9.868;2022-09-09T11:54:49;21.20;99.90
20831;DHT22;10576;53.556;9.868;2022-09-09T11:56:44;21.20;99.90
20831;DHT22;10576;53.556;9.868;2022-09-09T11:59:26;21.10;99.90
20831;DHT22;10576;53.556;9.868;2022-09-09T12:02:18;21.00;99.90
20831;DHT22;10576;53.556;9.868;2022-09-09T12:04:54;20.80;99.90
20831;DHT22;10576;53.556;9.868;2022-09-09T12:12:45;21.30;99.90
20831;DHT22;10576;53.556;9.868;2022-09-09T12:17:58;22.10;99.90
20831;DHT22;10576;53.556;9.868;2022-09-09T12:20:36;21.90;99.90
20831;DHT22;10576;53.556;9.868;2022-09-09T12:31:58;21.30;99.90
20831;DHT22;10576;53.556;9.868;2022-09-09T12:34:38;21.20;99.90
20831;DHT22;10576;53.556;9.868;2022-09-09T12:39:58;21.10;99.90
20831;DHT22;10576;53.556;9.868;2022-09-09T12:42:25;21.00;99.90
20831;DHT22;10576;53.556;9.868;2022-09-09T12:45:00;20.90;99.90
20831;DHT22;10576;53.556;9.868;2022-09-09T12:50:32;20.80;99.90
20831;DHT22;10576;53.556;9.868;2022-09-09T12:53:24;20.80;99.90
20831;DHT22;10576;53.556;9.868;2022-09-09T12:56:18;20.50;99.90
20831;DHT22;10576;53.556;9.868;2022-09-09T12:58:46;20.50;99.90
20831;DHT22;10576;53.556;9.868;2022-09-09T13:01:39;20.30;99.90
20831;DHT22;10576;53.556;9.868;2022-09-09T13:04:19;20.00;99.90
20831;DHT22;10576;53.556;9.868;2022-09-09T13:06:45;20.00;99.90
20831;DHT22;10576;53.556;9.868;2022-09-09T13:09:11;19.90;99.90
20831;DHT22;10576;53.556;9.868;2022-09-09T13:11:42;19.80;99.90
20831;DHT22;10576;53.556;9.868;2022-09-09T13:14:18;19.60;99.90
20831;DHT22;10576;53.556;9.868;2022-09-09T13:16:55;19.70;99.90
20831;DHT22;10576;53.556;9.868;2022-09-09T13:19:22;19.60;99.90
20831;DHT22;10576;53.556;9.868;2022-09-09T13:21:47;19.50;99.90
20831;DHT22;10576;53.556;9.868;2022-09-09T13:24:31;19.10;99.90
20831;DHT22;10576;53.556;9.868;2022-09-09T13:27:19;19.00;99.90
20831;DHT22;10576;53.556;9.868;2022-09-09T13:29:53;18.70;99.90
20831;DHT22;10576;53.556;9.868;2022-09-09T13:32:24;18.50;99.90
20831;DHT22;10576;53.556;9.868;2022-09-09T13:39:59;18.00;99.90
20831;DHT22;10576;53.556;9.868;2022-09-09T13:42:31;17.90;99.90
20831;DHT22;10576;53.556;9.868;2022-09-09T13:44:59;17.90;99.90
20831;DHT22;10576;53.556;9.868;2022-09-09T13:47:35;17.90;99.90
20831;DHT22;10576;53.556;9.868;2022-09-09T13:50:30;17.90;99.90
20831;DHT22;10576;53.556;9.868;2022-09-09T13:52:58;17.90;99.90
20831;DHT22;10576;53.556;9.868;2022-09-09T13:55:26;17.90;99.90
20831;DHT22;10576;53.556;9.868;2022-09-09T13:58:00;17.90;99.90
20831;DHT22;10576;53.556;9.868;2022-09-09T14:00:29;17.80;99.90
20831;DHT22;10576;53.556;9.868;2022-09-09T14:02:54;17.70;99.90
20831;DHT22;10576;53.556;9.868;2022-09-09T14:05:20;17.70;99.90
20831;DHT22;10576;53.556;9.868;2022-09-09T14:07:48;17.60;99.90
20831;DHT22;10576;53.556;9.868;2022-09-09T14:10:14;17.50;99.90
20831;DHT22;10576;53.556;9.868;2022-09-09T14:12:40;17.40;99.90
20831;DHT22;10576;53.556;9.868;2022-09-09T14:15:07;17.40;99.90
20831;DHT22;10576;53.556;9.868;2022-09-09T14:17:33;17.40;99.90
20831;DHT22;10576;53.556;9.868;2022-09-09T14:19:59;17.40;99.90
20831;DHT22;10576;53.556;9.868;2022-09-09T14:22:25;17.30;99.90
20831;DHT22;10576;53.556;9.868;2022-09-09T14:24:51;17.20;99.90
20831;DHT22;10576;53.556;9.868;2022-09-09T14:27:17;17.20;99.90
20831;DHT22;10576;53.556;9.868;2022-09-09T14:32:15;17.20;99.90
20831;DHT22;10576;53.556;9.868;2022-09-09T14:34:40;17.20;99.90
20831;DHT22;10576;53.556;9.868;2022-09-09T14:37:06;17.10;99.90
20831;DHT22;10576;53.556;9.868;2022-09-09T14:39:32;17.10;99.90
20831;DHT22;10576;53.556;9.868;2022-09-09T14:41:57;17.10;99.90
20831;DHT22;10576;53.556;9.868;2022-09-09T14:44:23;17.10;99.90
20831;DHT22;10576;53.556;9.868;2022-09-09T14:46:49;17.10;99.90
20831;DHT22;10576;53.556;9.868;2022-09-09T14:49:15;17.10;99.90
20831;DHT22;10576;53.556;9.868;2022-09-09T14:51:41;17.10;99.90
20831;DHT22;10576;53.556;9.868;2022-09-09T14:54:07;17.10;99.90
20831;DHT22;10576;53.556;9.868;2022-09-09T14:56:33;17.10;99.90
20831;DHT22;10576;53.556;9.868;2022-09-09T14:59:02;17.10;99.90
20831;DHT22;10576;53.556;9.868;2022-09-09T15:01:30;17.00;99.90
20831;DHT22;10576;53.556;9.868;2022-09-09T15:04:01;16.90;99.90
20831;DHT22;10576;53.556;9.868;2022-09-09T15:06:28;16.90;99.90
20831;DHT22;10576;53.556;9.868;2022-09-09T15:08:55;16.80;99.90
20831;DHT22;10576;53.556;9.868;2022-09-09T15:11:27;16.80;99.90
20831;DHT22;10576;53.556;9.868;2022-09-09T15:13:53;16.80;99.90
20831;DHT22;10576;53.556;9.868;2022-09-09T15:16:22;16.80;99.90
20831;DHT22;10576;53.556;9.868;2022-09-09T15:18:51;16.80;99.90
20831;DHT22;10576;53.556;9.868;2022-09-09T15:21:20;16.80;99.90
20831;DHT22;10576;53.556;9.868;2022-09-09T15:23:48;16.90;99.90
20831;DHT22;10576;53.556;9.868;2022-09-09T15:26:14;16.80;99.90
20831;DHT22;10576;53.556;9.868;2022-09-09T15:28:41;16.90;99.90
20831;DHT22;10576;53.556;9.868;2022-09-09T15:31:17;16.90;99.90
20831;DHT22;10576;53.556;9.868;2022-09-09T15:33:53;17.00;99.90
20831;DHT22;10576;53.556;9.868;2022-09-09T15:36:27;17.00;99.90
20831;DHT22;10576;53.556;9.868;2022-09-09T15:38:54;17.00;99.90
20831;DHT22;10576;53.556;9.868;2022-09-09T15:41:21;17.00;99.90
20831;DHT22;10576;53.556;9.868;2022-09-09T15:43:54;17.10;99.90
20831;DHT22;10576;53.556;9.868;2022-09-09T15:46:30;17.00;99.90
20831;DHT22;10576;53.556;9.868;2022-09-09T15:51:46;17.00;99.90
20831;DHT22;10576;53.556;9.868;2022-09-09T15:54:17;17.00;99.90
20831;DHT22;10576;53.556;9.868;2022-09-09T15:56:45;17.10;99.90
20831;DHT22;10576;53.556;9.868;2022-09-09T15:59:11;17.10;99.90
20831;DHT22;10576;53.556;9.868;2022-09-09T16:01:38;17.20;99.90
20831;DHT22;10576;53.556;9.868;2022-09-09T16:04:05;17.20;99.90
20831;DHT22;10576;53.556;9.868;2022-09-09T16:06:32;17.20;99.90
20831;DHT22;10576;53.556;9.868;2022-09-09T16:08:59;17.20;99.90
20831;DHT22;10576;53.556;9.868;2022-09-09T16:11:29;17.20;99.90
20831;DHT22;10576;53.556;9.868;2022-09-09T16:13:58;17.20;99.90
20831;DHT22;10576;53.556;9.868;2022-09-09T16:16:25;17.20;99.90
20831;DHT22;10576;53.556;9.868;2022-09-09T16:18:54;17.10;99.90
20831;DHT22;10576;53.556;9.868;2022-09-09T16:21:27;17.10;99.90
20831;DHT22;10576;53.556;9.868;2022-09-09T16:23:59;17.20;99.90
20831;DHT22;10576;53.556;9.868;2022-09-09T16:26:26;17.20;99.90
20831;DHT22;10576;53.556;9.868;2022-09-09T16:28:52;17.10;99.90
20831;DHT22;10576;53.556;9.868;2022-09-09T16:31:22;17.10;99.90
20831;DHT22;10576;53.556;9.868;2022-09-09T16:33:47;17.10;99.90
20831;DHT22;10576;53.556;9.868;2022-09-09T16:36:16;17.00;99.90
20831;DHT22;10576;53.556;9.868;2022-09-09T16:38:42;17.10;99.90
20831;DHT22;10576;53.556;9.868;2022-09-09T16:41:12;17.10;99.90
20831;DHT22;10576;53.556;9.868;2022-09-09T16:43:38;17.00;99.90
20831;DHT22;10576;53.556;9.868;2022-09-09T16:46:18;17.00;99.90
20831;DHT22;10576;53.556;9.868;2022-09-09T16:48:46;17.00;99.90
20831;DHT22;10576;53.556;9.868;2022-09-09T16:51:15;16.90;99.90
20831;DHT22;10576;53.556;9.868;2022-09-09T16:53:42;16.80;99.90
20831;DHT22;10576;53.556;9.868;2022-09-09T16:56:14;16.80;99.90
20831;DHT22;10576;53.556;9.868;2022-09-09T16:58:40;16.70;99.90
20831;DHT22;10576;53.556;9.868;2022-09-09T17:01:08;16.70;99.90
20831;DHT22;10576;53.556;9.868;2022-09-09T17:03:35;16.60;99.90
20831;DHT22;10576;53.556;9.868;2022-09-09T17:06:02;16.50;99.90
20831;DHT22;10576;53.556;9.868;2022-09-09T17:08:31;16.40;99.90
20831;DHT22;10576;53.556;9.868;2022-09-09T17:10:58;16.40;99.90
20831;DHT22;10576;53.556;9.868;2022-09-09T17:13:24;16.40;99.90
20831;DHT22;10576;53.556;9.868;2022-09-09T17:15:50;16.30;99.90
20831;DHT22;10576;53.556;9.868;2022-09-09T17:18:16;16.30;99.90
20831;DHT22;10576;53.556;9.868;2022-09-09T17:20:42;16.20;99.90
20831;DHT22;10576;53.556;9.868;2022-09-09T17:23:10;16.20;99.90
20831;DHT22;10576;53.556;9.868;2022-09-09T17:25:37;16.20;99.90
20831;DHT22;10576;53.556;9.868;2022-09-09T17:28:03;16.10;99.90
20831;DHT22;10576;53.556;9.868;2022-09-09T17:30:33;16.10;99.90
20831;DHT22;10576;53.556;9.868;2022-09-09T17:33:00;16.10;99.90
20831;DHT22;10576;53.556;9.868;2022-09-09T17:35:26;16.10;99.90
20831;DHT22;10576;53.556;9.868;2022-09-09T17:37:53;16.00;99.90
20831;DHT22;10576;53.556;9.868;2022-09-09T17:40:20;15.90;99.90
20831;DHT22;10576;53.556;9.868;2022-09-09T17:42:46;15.90;99.90
20831;DHT22;10576;53.556;9.868;2022-09-09T17:45:12;15.90;99.90
20831;DHT22;10576;53.556;9.868;2022-09-09T17:47:38;15.80;99.90
20831;DHT22;10576;53.556;9.868;2022-09-09T17:50:05;15.80;99.90
20831;DHT22;10576;53.556;9.868;2022-09-09T17:52:32;15.70;99.90
20831;DHT22;10576;53.556;9.868;2022-09-09T17:54:58;15.70;99.90
20831;DHT22;10576;53.556;9.868;2022-09-09T17:57:23;15.60;99.90
20831;DHT22;10576;53.556;9.868;2022-09-09T17:59:50;15.60;99.90
20831;DHT22;10576;53.556;9.868;2022-09-09T18:02:16;15.50;99.90
20831;DHT22;10576;53.556;9.868;2022-09-09T18:04:41;15.50;99.90
20831;DHT22;10576;53.556;9.868;2022-09-09T18:07:07;15.50;99.90
20831;DHT22;10576;53.556;9.868;2022-09-09T18:09:33;15.40;99.90
20831;DHT22;10576;53.556;9.868;2022-09-09T18:11:59;15.40;99.90
20831;DHT22;10576;53.556;9.868;2022-09-09T18:14:28;15.40;99.90
20831;DHT22;10576;53.556;9.868;2022-09-09T18:16:56;15.40;99.90
20831;DHT22;10576;53.556;9.868;2022-09-09T18:19:24;15.40;99.90